<?xml version="1.0" encoding="UTF-8" standalone="no" ?>
<gpx xmlns="http://www.topografix.com/GPX/1/1" xmlns:xsi="http://www.w3.org/2001/XMLSchema-instance" xsi:schemaLocation="http://www.topografix.com/GPX/1/1 http://www.topografix.com/GPX/1/1/gpx.xsd" version="1.1" creator="VisuGPX - https://www.visugpx.com">
  <metadata>
    <name>Norvège</name>
  </metadata>
  <trk>
    <name><![CDATA[Tour d'Europe: étape 055]]></name>
    <trkseg>
      <trkpt lat="68.21722" lon="14.4452">
        <ele>45.146139</ele>
        <time>2020-08-22T07:25:56.705Z</time>
      </trkpt>
      <trkpt lat="68.21605" lon="14.44149">
        <ele>39.074902</ele>
        <time>2020-08-22T07:26:50.693Z</time>
      </trkpt>
      <trkpt lat="68.21453" lon="14.44078">
        <ele>37.441891</ele>
        <time>2020-08-22T07:27:54.707Z</time>
      </trkpt>
      <trkpt lat="68.2137" lon="14.446">
        <ele>39.019968</ele>
        <time>2020-08-22T07:28:53.722Z</time>
      </trkpt>
      <trkpt lat="68.21373" lon="14.45096">
        <ele>52.279209</ele>
        <time>2020-08-22T07:30:27.716Z</time>
      </trkpt>
      <trkpt lat="68.21336" lon="14.45615">
        <ele>63.303769</ele>
        <time>2020-08-22T07:31:55.719Z</time>
      </trkpt>
      <trkpt lat="68.21337" lon="14.46227">
        <ele>51.829357</ele>
        <time>2020-08-22T07:32:45.715Z</time>
      </trkpt>
      <trkpt lat="68.21236" lon="14.46581">
        <ele>41.596093</ele>
        <time>2020-08-22T07:33:50.734Z</time>
      </trkpt>
      <trkpt lat="68.212" lon="14.47182">
        <ele>44.84906</ele>
        <time>2020-08-22T07:34:51.711Z</time>
      </trkpt>
      <trkpt lat="68.21201" lon="14.47774">
        <ele>43.566093</ele>
        <time>2020-08-22T07:35:38.710Z</time>
      </trkpt>
      <trkpt lat="68.21348" lon="14.48212">
        <ele>44.655051</ele>
        <time>2020-08-22T07:36:29.714Z</time>
      </trkpt>
      <trkpt lat="68.21555" lon="14.4819">
        <ele>42.627217</ele>
        <time>2020-08-22T07:37:28.704Z</time>
      </trkpt>
      <trkpt lat="68.21678" lon="14.48655">
        <ele>43.976223</ele>
        <time>2020-08-22T07:38:19.705Z</time>
      </trkpt>
      <trkpt lat="68.21781" lon="14.49169">
        <ele>52.095979</ele>
        <time>2020-08-22T07:39:35.706Z</time>
      </trkpt>
      <trkpt lat="68.2193" lon="14.49554">
        <ele>62.349327</ele>
        <time>2020-08-22T07:40:48.735Z</time>
      </trkpt>
      <trkpt lat="68.22089" lon="14.50062">
        <ele>58.337775</ele>
        <time>2020-08-22T07:41:35.727Z</time>
      </trkpt>
      <trkpt lat="68.22175" lon="14.50507">
        <ele>60.160614</ele>
        <time>2020-08-22T07:43:11.728Z</time>
      </trkpt>
      <trkpt lat="68.22201" lon="14.51074">
        <ele>63.516844</ele>
        <time>2020-08-22T07:44:18.721Z</time>
      </trkpt>
      <trkpt lat="68.224" lon="14.51494">
        <ele>57.769094</ele>
        <time>2020-08-22T07:45:08.754Z</time>
      </trkpt>
      <trkpt lat="68.22464" lon="14.52018">
        <ele>60.346602</ele>
        <time>2020-08-22T07:45:53.742Z</time>
      </trkpt>
      <trkpt lat="68.22511" lon="14.52535">
        <ele>73.884577</ele>
        <time>2020-08-22T07:47:28.716Z</time>
      </trkpt>
      <trkpt lat="68.22657" lon="14.52924">
        <ele>76.77748</ele>
        <time>2020-08-22T07:48:38.718Z</time>
      </trkpt>
      <trkpt lat="68.22844" lon="14.53238">
        <ele>65.087902</ele>
        <time>2020-08-22T07:49:08.722Z</time>
      </trkpt>
      <trkpt lat="68.23054" lon="14.53119">
        <ele>49.700216</ele>
        <time>2020-08-22T07:50:06.734Z</time>
      </trkpt>
      <trkpt lat="68.23274" lon="14.53331">
        <ele>60.143031</ele>
        <time>2020-08-22T07:50:49.703Z</time>
      </trkpt>
      <trkpt lat="68.2343" lon="14.53672">
        <ele>128.764489</ele>
        <time>2020-08-22T07:52:09.722Z</time>
      </trkpt>
      <trkpt lat="68.23558" lon="14.54143">
        <ele>125.099101</ele>
        <time>2020-08-22T07:52:51.714Z</time>
      </trkpt>
      <trkpt lat="68.2363" lon="14.54677">
        <ele>49.718583</ele>
        <time>2020-08-22T07:53:34.726Z</time>
      </trkpt>
      <trkpt lat="68.23635" lon="14.55278">
        <ele>39.215173</ele>
        <time>2020-08-22T07:54:23.748Z</time>
      </trkpt>
      <trkpt lat="68.23626" lon="14.55821">
        <ele>41.600821</ele>
        <time>2020-08-22T07:55:11.726Z</time>
      </trkpt>
      <trkpt lat="68.2369" lon="14.56437">
        <ele>46.207849</ele>
        <time>2020-08-22T07:56:14.721Z</time>
      </trkpt>
      <trkpt lat="68.23873" lon="14.56673">
        <ele>42.782311</ele>
        <time>2020-08-22T07:57:00.736Z</time>
      </trkpt>
      <trkpt lat="68.2407" lon="14.56993">
        <ele>43.242769</ele>
        <time>2020-08-22T07:57:59.714Z</time>
      </trkpt>
      <trkpt lat="68.24231" lon="14.57452">
        <ele>47.606221</ele>
        <time>2020-08-22T07:58:54.734Z</time>
      </trkpt>
      <trkpt lat="68.24306" lon="14.57969">
        <ele>46.747878</ele>
        <time>2020-08-22T08:00:03.740Z</time>
      </trkpt>
      <trkpt lat="68.24237" lon="14.58487">
        <ele>47.065649</ele>
        <time>2020-08-22T08:01:04.743Z</time>
      </trkpt>
      <trkpt lat="68.24206" lon="14.59082">
        <ele>49.087382</ele>
        <time>2020-08-22T08:01:51.708Z</time>
      </trkpt>
      <trkpt lat="68.24226" lon="14.59635">
        <ele>51.055533</ele>
        <time>2020-08-22T08:02:41.706Z</time>
      </trkpt>
      <trkpt lat="68.24315" lon="14.60212">
        <ele>47.319097</ele>
        <time>2020-08-22T08:03:24.720Z</time>
      </trkpt>
      <trkpt lat="68.24405" lon="14.60736">
        <ele>49.452698</ele>
        <time>2020-08-22T08:04:19.719Z</time>
      </trkpt>
      <trkpt lat="68.24436" lon="14.61296">
        <ele>54.409618</ele>
        <time>2020-08-22T08:05:14.727Z</time>
      </trkpt>
      <trkpt lat="68.24476" lon="14.6194">
        <ele>55.110709</ele>
        <time>2020-08-22T08:05:58.723Z</time>
      </trkpt>
      <trkpt lat="68.24539" lon="14.62531">
        <ele>52.893848</ele>
        <time>2020-08-22T08:06:55.734Z</time>
      </trkpt>
      <trkpt lat="68.24586" lon="14.63157">
        <ele>54.056967</ele>
        <time>2020-08-22T08:07:39.709Z</time>
      </trkpt>
      <trkpt lat="68.24403" lon="14.63296">
        <ele>62.432139</ele>
        <time>2020-08-22T08:09:06.721Z</time>
      </trkpt>
      <trkpt lat="68.24383" lon="14.64039">
        <ele>70.725145</ele>
        <time>2020-08-22T08:11:18.715Z</time>
      </trkpt>
      <trkpt lat="68.24416" lon="14.64673">
        <ele>53.024295</ele>
        <time>2020-08-22T08:11:43.723Z</time>
      </trkpt>
      <trkpt lat="68.24451" lon="14.65294">
        <ele>41.190852</ele>
        <time>2020-08-22T08:12:03.709Z</time>
      </trkpt>
      <trkpt lat="68.24629" lon="14.65817">
        <ele>39.702303</ele>
        <time>2020-08-22T08:12:42.721Z</time>
      </trkpt>
      <trkpt lat="68.24805" lon="14.66085">
        <ele>41.022513</ele>
        <time>2020-08-22T08:13:22.713Z</time>
      </trkpt>
      <trkpt lat="68.25001" lon="14.66295">
        <ele>45.50416</ele>
        <time>2020-08-22T08:14:08.727Z</time>
      </trkpt>
      <trkpt lat="68.25213" lon="14.66277">
        <ele>47.66968</ele>
        <time>2020-08-22T08:15:12.704Z</time>
      </trkpt>
      <trkpt lat="68.25421" lon="14.66178">
        <ele>48.139963</ele>
        <time>2020-08-22T08:15:59.735Z</time>
      </trkpt>
      <trkpt lat="68.2564" lon="14.66016">
        <ele>48.304823</ele>
        <time>2020-08-22T08:16:52.724Z</time>
      </trkpt>
      <trkpt lat="68.2584" lon="14.6577">
        <ele>47.852603</ele>
        <time>2020-08-22T08:17:48.716Z</time>
      </trkpt>
      <trkpt lat="68.26067" lon="14.65766">
        <ele>41.223022</ele>
        <time>2020-08-22T08:18:15.722Z</time>
      </trkpt>
      <trkpt lat="68.26297" lon="14.65764">
        <ele>38.48842</ele>
        <time>2020-08-22T08:18:55.726Z</time>
      </trkpt>
      <trkpt lat="68.26506" lon="14.65938">
        <ele>41.978259</ele>
        <time>2020-08-22T08:19:35.727Z</time>
      </trkpt>
      <trkpt lat="68.26748" lon="14.65858">
        <ele>42.913125</ele>
        <time>2020-08-22T08:20:31.731Z</time>
      </trkpt>
      <trkpt lat="68.26951" lon="14.65721">
        <ele>45.654674</ele>
        <time>2020-08-22T08:21:32.709Z</time>
      </trkpt>
      <trkpt lat="68.27152" lon="14.65709">
        <ele>52.829669</ele>
        <time>2020-08-22T08:22:58.724Z</time>
      </trkpt>
      <trkpt lat="68.27374" lon="14.65696">
        <ele>53.625666</ele>
        <time>2020-08-22T08:23:59.732Z</time>
      </trkpt>
      <trkpt lat="68.27559" lon="14.66022">
        <ele>42.216124</ele>
        <time>2020-08-22T08:24:26.714Z</time>
      </trkpt>
      <trkpt lat="68.27788" lon="14.66285">
        <ele>38.601181</ele>
        <time>2020-08-22T08:25:06.726Z</time>
      </trkpt>
      <trkpt lat="68.27982" lon="14.66042">
        <ele>45.120953</ele>
        <time>2020-08-22T08:26:06.725Z</time>
      </trkpt>
      <trkpt lat="68.28224" lon="14.6597">
        <ele>42.793622</ele>
        <time>2020-08-22T08:26:54.758Z</time>
      </trkpt>
      <trkpt lat="68.28406" lon="14.66236">
        <ele>39.985848</ele>
        <time>2020-08-22T08:27:44.714Z</time>
      </trkpt>
      <trkpt lat="68.28367" lon="14.66797">
        <ele>48.660349</ele>
        <time>2020-08-22T08:28:49.720Z</time>
      </trkpt>
      <trkpt lat="68.28408" lon="14.67497">
        <ele>48.769229</ele>
        <time>2020-08-22T08:29:38.721Z</time>
      </trkpt>
      <trkpt lat="68.28491" lon="14.68027">
        <ele>43.805645</ele>
        <time>2020-08-22T08:30:25.747Z</time>
      </trkpt>
      <trkpt lat="68.28576" lon="14.68512">
        <ele>43.135266</ele>
        <time>2020-08-22T08:31:08.727Z</time>
      </trkpt>
      <trkpt lat="68.28665" lon="14.69018">
        <ele>42.009103</ele>
        <time>2020-08-22T08:31:51.748Z</time>
      </trkpt>
      <trkpt lat="68.28788" lon="14.69453">
        <ele>42.429553</ele>
        <time>2020-08-22T08:32:44.713Z</time>
      </trkpt>
      <trkpt lat="68.29008" lon="14.69672">
        <ele>44.292637</ele>
        <time>2020-08-22T08:33:39.726Z</time>
      </trkpt>
      <trkpt lat="68.29226" lon="14.69752">
        <ele>45.555055</ele>
        <time>2020-08-22T08:34:30.725Z</time>
      </trkpt>
      <trkpt lat="68.29436" lon="14.69824">
        <ele>41.115465</ele>
        <time>2020-08-22T08:35:10.722Z</time>
      </trkpt>
      <trkpt lat="68.2961" lon="14.70148">
        <ele>45.302378</ele>
        <time>2020-08-22T08:36:04.717Z</time>
      </trkpt>
      <trkpt lat="68.29839" lon="14.70244">
        <ele>48.432443</ele>
        <time>2020-08-22T08:37:11.707Z</time>
      </trkpt>
      <trkpt lat="68.29993" lon="14.70613">
        <ele>52.546211</ele>
        <time>2020-08-22T08:38:22.722Z</time>
      </trkpt>
      <trkpt lat="68.30187" lon="14.70752">
        <ele>63.512715</ele>
        <time>2020-08-22T08:40:10.730Z</time>
      </trkpt>
      <trkpt lat="68.30393" lon="14.70836">
        <ele>64.651798</ele>
        <time>2020-08-22T08:41:23.723Z</time>
      </trkpt>
      <trkpt lat="68.3061" lon="14.70803">
        <ele>68.015331</ele>
        <time>2020-08-22T08:42:23.741Z</time>
      </trkpt>
      <trkpt lat="68.30823" lon="14.70896">
        <ele>69.234883</ele>
        <time>2020-08-22T08:43:24.733Z</time>
      </trkpt>
      <trkpt lat="68.31055" lon="14.71016">
        <ele>66.95282</ele>
        <time>2020-08-22T08:44:12.760Z</time>
      </trkpt>
      <trkpt lat="68.31301" lon="14.71175">
        <ele>62.734261</ele>
        <time>2020-08-22T08:44:55.741Z</time>
      </trkpt>
      <trkpt lat="68.31492" lon="14.71424">
        <ele>65.020572</ele>
        <time>2020-08-22T08:45:57.727Z</time>
      </trkpt>
      <trkpt lat="68.31501" lon="14.71472">
        <ele>65.870656</ele>
        <time>2020-08-22T08:59:50.749Z</time>
      </trkpt>
      <trkpt lat="68.31701" lon="14.71259">
        <ele>64.704427</ele>
        <time>2020-08-22T09:00:49.737Z</time>
      </trkpt>
      <trkpt lat="68.31837" lon="14.70757">
        <ele>54.0582</ele>
        <time>2020-08-22T09:01:13.740Z</time>
      </trkpt>
      <trkpt lat="68.31941" lon="14.70135">
        <ele>45.012796</ele>
        <time>2020-08-22T09:01:38.736Z</time>
      </trkpt>
      <trkpt lat="68.32146" lon="14.69922">
        <ele>48.437536</ele>
        <time>2020-08-22T09:02:43.732Z</time>
      </trkpt>
      <trkpt lat="68.3236" lon="14.69885">
        <ele>51.57258</ele>
        <time>2020-08-22T09:03:59.720Z</time>
      </trkpt>
      <trkpt lat="68.32428" lon="14.69171">
        <ele>42.661002</ele>
        <time>2020-08-22T09:04:39.714Z</time>
      </trkpt>
      <trkpt lat="68.32518" lon="14.68657">
        <ele>41.452273</ele>
        <time>2020-08-22T09:05:23.737Z</time>
      </trkpt>
      <trkpt lat="68.32435" lon="14.68137">
        <ele>42.234185</ele>
        <time>2020-08-22T09:06:24.714Z</time>
      </trkpt>
      <trkpt lat="68.32376" lon="14.67592">
        <ele>41.452326</ele>
        <time>2020-08-22T09:07:27.727Z</time>
      </trkpt>
      <trkpt lat="68.32444" lon="14.67045">
        <ele>43.909834</ele>
        <time>2020-08-22T09:08:27.722Z</time>
      </trkpt>
      <trkpt lat="68.32521" lon="14.66511">
        <ele>49.242856</ele>
        <time>2020-08-22T09:09:25.743Z</time>
      </trkpt>
      <trkpt lat="68.32527" lon="14.65984">
        <ele>55.192694</ele>
        <time>2020-08-22T09:11:02.765Z</time>
      </trkpt>
      <trkpt lat="68.32621" lon="14.65369">
        <ele>43.855406</ele>
        <time>2020-08-22T09:11:33.716Z</time>
      </trkpt>
      <trkpt lat="68.3255" lon="14.64893">
        <ele>36.961005</ele>
        <time>2020-08-22T09:12:02.755Z</time>
      </trkpt>
      <trkpt lat="68.32348" lon="14.64769">
        <ele>42.366503</ele>
        <time>2020-08-22T09:13:09.738Z</time>
      </trkpt>
      <trkpt lat="68.32139" lon="14.64637">
        <ele>39.750348</ele>
        <time>2020-08-22T09:14:00.739Z</time>
      </trkpt>
      <trkpt lat="68.32001" lon="14.64226">
        <ele>45.389751</ele>
        <time>2020-08-22T09:14:54.725Z</time>
      </trkpt>
      <trkpt lat="68.3194" lon="14.63648">
        <ele>50.906062</ele>
        <time>2020-08-22T09:16:06.729Z</time>
      </trkpt>
      <trkpt lat="68.31857" lon="14.63147">
        <ele>53.199103</ele>
        <time>2020-08-22T09:17:31.730Z</time>
      </trkpt>
      <trkpt lat="68.31778" lon="14.62611">
        <ele>57.582454</ele>
        <time>2020-08-22T09:18:39.757Z</time>
      </trkpt>
      <trkpt lat="68.31757" lon="14.6205">
        <ele>64.226324</ele>
        <time>2020-08-22T09:19:53.720Z</time>
      </trkpt>
      <trkpt lat="68.31797" lon="14.61461">
        <ele>64.802368</ele>
        <time>2020-08-22T09:20:51.721Z</time>
      </trkpt>
      <trkpt lat="68.31795" lon="14.60781">
        <ele>60.633325</ele>
        <time>2020-08-22T09:21:33.725Z</time>
      </trkpt>
      <trkpt lat="68.31778" lon="14.60196">
        <ele>65.59591</ele>
        <time>2020-08-22T09:22:28.741Z</time>
      </trkpt>
      <trkpt lat="68.3173" lon="14.59687">
        <ele>70.64106</ele>
        <time>2020-08-22T09:23:51.713Z</time>
      </trkpt>
      <trkpt lat="68.31601" lon="14.59285">
        <ele>75.027505</ele>
        <time>2020-08-22T09:25:15.715Z</time>
      </trkpt>
      <trkpt lat="68.31455" lon="14.58714">
        <ele>71.904506</ele>
        <time>2020-08-22T09:26:09.725Z</time>
      </trkpt>
      <trkpt lat="68.31342" lon="14.58168">
        <ele>76.182864</ele>
        <time>2020-08-22T09:27:05.722Z</time>
      </trkpt>
      <trkpt lat="68.31302" lon="14.57534">
        <ele>75.576977</ele>
        <time>2020-08-22T09:28:01.737Z</time>
      </trkpt>
      <trkpt lat="68.31444" lon="14.57027">
        <ele>64.645834</ele>
        <time>2020-08-22T09:28:24.714Z</time>
      </trkpt>
      <trkpt lat="68.31523" lon="14.5649">
        <ele>59.865073</ele>
        <time>2020-08-22T09:28:53.732Z</time>
      </trkpt>
      <trkpt lat="68.3166" lon="14.55855">
        <ele>57.740031</ele>
        <time>2020-08-22T09:29:30.725Z</time>
      </trkpt>
      <trkpt lat="68.31841" lon="14.55425">
        <ele>57.725846</ele>
        <time>2020-08-22T09:30:22.729Z</time>
      </trkpt>
      <trkpt lat="68.31954" lon="14.54905">
        <ele>59.606253</ele>
        <time>2020-08-22T09:31:06.722Z</time>
      </trkpt>
      <trkpt lat="68.32051" lon="14.54378">
        <ele>59.460177</ele>
        <time>2020-08-22T09:31:52.731Z</time>
      </trkpt>
      <trkpt lat="68.32191" lon="14.53911">
        <ele>59.848989</ele>
        <time>2020-08-22T09:32:46.737Z</time>
      </trkpt>
      <trkpt lat="68.32273" lon="14.53335">
        <ele>60.281563</ele>
        <time>2020-08-22T09:33:39.737Z</time>
      </trkpt>
      <trkpt lat="68.32346" lon="14.52749">
        <ele>58.502475</ele>
        <time>2020-08-22T09:34:28.725Z</time>
      </trkpt>
      <trkpt lat="68.32398" lon="14.52148">
        <ele>58.926334</ele>
        <time>2020-08-22T09:35:21.790Z</time>
      </trkpt>
      <trkpt lat="68.3249" lon="14.51543">
        <ele>55.878337</ele>
        <time>2020-08-22T09:36:04.722Z</time>
      </trkpt>
      <trkpt lat="68.32654" lon="14.50929">
        <ele>53.751773</ele>
        <time>2020-08-22T09:36:44.752Z</time>
      </trkpt>
      <trkpt lat="68.32903" lon="14.51115">
        <ele>44.868673</ele>
        <time>2020-08-22T09:37:24.778Z</time>
      </trkpt>
      <trkpt lat="68.33165" lon="14.51024">
        <ele>42.191335</ele>
        <time>2020-08-22T09:38:06.770Z</time>
      </trkpt>
      <trkpt lat="68.33308" lon="14.50559">
        <ele>45.980002</ele>
        <time>2020-08-22T09:39:00.735Z</time>
      </trkpt>
      <trkpt lat="68.33455" lon="14.50125">
        <ele>45.198561</ele>
        <time>2020-08-22T09:39:51.731Z</time>
      </trkpt>
      <trkpt lat="68.33633" lon="14.49824">
        <ele>48.373185</ele>
        <time>2020-08-22T09:40:51.739Z</time>
      </trkpt>
      <trkpt lat="68.3375" lon="14.49367">
        <ele>56.66653</ele>
        <time>2020-08-22T09:42:12.754Z</time>
      </trkpt>
      <trkpt lat="68.33865" lon="14.48759">
        <ele>57.446067</ele>
        <time>2020-08-22T09:42:55.736Z</time>
      </trkpt>
      <trkpt lat="68.34063" lon="14.48542">
        <ele>55.234549</ele>
        <time>2020-08-22T09:43:51.734Z</time>
      </trkpt>
      <trkpt lat="68.34247" lon="14.48772">
        <ele>60.710489</ele>
        <time>2020-08-22T09:45:05.736Z</time>
      </trkpt>
      <trkpt lat="68.34437" lon="14.49108">
        <ele>62.657273</ele>
        <time>2020-08-22T09:46:09.726Z</time>
      </trkpt>
      <trkpt lat="68.34674" lon="14.4955">
        <ele>56.333277</ele>
        <time>2020-08-22T09:46:51.735Z</time>
      </trkpt>
      <trkpt lat="68.3491" lon="14.49518">
        <ele>46.413974</ele>
        <time>2020-08-22T09:47:32.761Z</time>
      </trkpt>
      <trkpt lat="68.3514" lon="14.49406">
        <ele>42.249865</ele>
        <time>2020-08-22T09:48:02.749Z</time>
      </trkpt>
      <trkpt lat="68.35348" lon="14.49119">
        <ele>43.252012</ele>
        <time>2020-08-22T09:48:42.734Z</time>
      </trkpt>
      <trkpt lat="68.35548" lon="14.48847">
        <ele>46.432758</ele>
        <time>2020-08-22T09:49:35.750Z</time>
      </trkpt>
      <trkpt lat="68.35738" lon="14.48585">
        <ele>49.453507</ele>
        <time>2020-08-22T09:50:42.754Z</time>
      </trkpt>
      <trkpt lat="68.35954" lon="14.48257">
        <ele>51.607999</ele>
        <time>2020-08-22T09:51:36.752Z</time>
      </trkpt>
      <trkpt lat="68.3615" lon="14.47931">
        <ele>54.920677</ele>
        <time>2020-08-22T09:52:26.754Z</time>
      </trkpt>
      <trkpt lat="68.36322" lon="14.47494">
        <ele>55.088242</ele>
        <time>2020-08-22T09:53:06.763Z</time>
      </trkpt>
      <trkpt lat="68.36453" lon="14.46901">
        <ele>55.210774</ele>
        <time>2020-08-22T09:53:46.773Z</time>
      </trkpt>
      <trkpt lat="68.36611" lon="14.46351">
        <ele>49.973334</ele>
        <time>2020-08-22T09:54:26.743Z</time>
      </trkpt>
      <trkpt lat="68.3685" lon="14.46233">
        <ele>48.676061</ele>
        <time>2020-08-22T09:55:20.751Z</time>
      </trkpt>
      <trkpt lat="68.37055" lon="14.46229">
        <ele>52.231972</ele>
        <time>2020-08-22T09:56:21.757Z</time>
      </trkpt>
      <trkpt lat="68.3727" lon="14.46143">
        <ele>53.421898</ele>
        <time>2020-08-22T09:57:14.742Z</time>
      </trkpt>
      <trkpt lat="68.37558" lon="14.46006">
        <ele>45.237871</ele>
        <time>2020-08-22T09:57:54.766Z</time>
      </trkpt>
      <trkpt lat="68.37824" lon="14.46178">
        <ele>43.666371</ele>
        <time>2020-08-22T09:58:34.738Z</time>
      </trkpt>
      <trkpt lat="68.38047" lon="14.46237">
        <ele>44.237476</ele>
        <time>2020-08-22T09:59:14.748Z</time>
      </trkpt>
      <trkpt lat="68.3827" lon="14.46177">
        <ele>45.137608</ele>
        <time>2020-08-22T09:59:56.733Z</time>
      </trkpt>
      <trkpt lat="68.38475" lon="14.46129">
        <ele>45.667726</ele>
        <time>2020-08-22T10:00:38.735Z</time>
      </trkpt>
      <trkpt lat="68.38684" lon="14.46274">
        <ele>45.379574</ele>
        <time>2020-08-22T10:01:18.740Z</time>
      </trkpt>
      <trkpt lat="68.38904" lon="14.46429">
        <ele>45.035808</ele>
        <time>2020-08-22T10:01:58.766Z</time>
      </trkpt>
      <trkpt lat="68.39136" lon="14.46591">
        <ele>44.966528</ele>
        <time>2020-08-22T10:02:38.777Z</time>
      </trkpt>
      <trkpt lat="68.39335" lon="14.46742">
        <ele>46.252842</ele>
        <time>2020-08-22T10:03:20.739Z</time>
      </trkpt>
      <trkpt lat="68.39381" lon="14.47338">
        <ele>48.46974</ele>
        <time>2020-08-22T10:04:00.757Z</time>
      </trkpt>
      <trkpt lat="68.39335" lon="14.479">
        <ele>48.286741</ele>
        <time>2020-08-22T10:04:43.720Z</time>
      </trkpt>
      <trkpt lat="68.39432" lon="14.48377">
        <ele>48.275281</ele>
        <time>2020-08-22T10:05:27.731Z</time>
      </trkpt>
      <trkpt lat="68.39597" lon="14.48798">
        <ele>47.605225</ele>
        <time>2020-08-22T10:06:19.739Z</time>
      </trkpt>
      <trkpt lat="68.39704" lon="14.49305">
        <ele>50.28565</ele>
        <time>2020-08-22T10:07:01.757Z</time>
      </trkpt>
      <trkpt lat="68.39882" lon="14.49741">
        <ele>47.928795</ele>
        <time>2020-08-22T10:07:59.762Z</time>
      </trkpt>
      <trkpt lat="68.4006" lon="14.50075">
        <ele>48.72407</ele>
        <time>2020-08-22T10:08:49.766Z</time>
      </trkpt>
      <trkpt lat="68.40203" lon="14.5051">
        <ele>51.899094</ele>
        <time>2020-08-22T10:09:48.729Z</time>
      </trkpt>
      <trkpt lat="68.40267" lon="14.5104">
        <ele>56.399355</ele>
        <time>2020-08-22T10:10:48.741Z</time>
      </trkpt>
      <trkpt lat="68.40302" lon="14.51704">
        <ele>52.617937</ele>
        <time>2020-08-22T10:11:43.748Z</time>
      </trkpt>
      <trkpt lat="68.40171" lon="14.52142">
        <ele>58.54452</ele>
        <time>2020-08-22T10:12:50.754Z</time>
      </trkpt>
      <trkpt lat="68.40053" lon="14.52644">
        <ele>67.141552</ele>
        <time>2020-08-22T10:14:13.773Z</time>
      </trkpt>
      <trkpt lat="68.399" lon="14.52974">
        <ele>55.664486</ele>
        <time>2020-08-22T10:14:33.750Z</time>
      </trkpt>
      <trkpt lat="68.39718" lon="14.53358">
        <ele>42.363831</ele>
        <time>2020-08-22T10:15:10.748Z</time>
      </trkpt>
      <trkpt lat="68.39575" lon="14.53837">
        <ele>43.928083</ele>
        <time>2020-08-22T10:16:06.738Z</time>
      </trkpt>
      <trkpt lat="68.39532" lon="14.54476">
        <ele>45.281494</ele>
        <time>2020-08-22T10:17:02.769Z</time>
      </trkpt>
      <trkpt lat="68.3949" lon="14.55118">
        <ele>43.519942</ele>
        <time>2020-08-22T10:17:57.745Z</time>
      </trkpt>
      <trkpt lat="68.39451" lon="14.55708">
        <ele>44.023299</ele>
        <time>2020-08-22T10:18:49.772Z</time>
      </trkpt>
      <trkpt lat="68.39542" lon="14.5622">
        <ele>43.601654</ele>
        <time>2020-08-22T10:19:40.738Z</time>
      </trkpt>
      <trkpt lat="68.39715" lon="14.56502">
        <ele>42.463373</ele>
        <time>2020-08-22T10:20:24.758Z</time>
      </trkpt>
      <trkpt lat="68.39862" lon="14.56834">
        <ele>42.597303</ele>
        <time>2020-08-22T10:21:05.739Z</time>
      </trkpt>
      <trkpt lat="68.39913" lon="14.57346">
        <ele>44.337782</ele>
        <time>2020-08-22T10:21:46.762Z</time>
      </trkpt>
      <trkpt lat="68.39866" lon="14.57895">
        <ele>48.611713</ele>
        <time>2020-08-22T10:22:50.772Z</time>
      </trkpt>
      <trkpt lat="68.39977" lon="14.58336">
        <ele>51.11455</ele>
        <time>2020-08-22T10:24:06.777Z</time>
      </trkpt>
      <trkpt lat="68.40192" lon="14.58235">
        <ele>49.254809</ele>
        <time>2020-08-22T10:25:04.738Z</time>
      </trkpt>
      <trkpt lat="68.40347" lon="14.57873">
        <ele>49.27218</ele>
        <time>2020-08-22T10:25:44.736Z</time>
      </trkpt>
      <trkpt lat="68.40484" lon="14.57494">
        <ele>49.714071</ele>
        <time>2020-08-22T10:26:26.753Z</time>
      </trkpt>
      <trkpt lat="68.40662" lon="14.57262">
        <ele>50.747886</ele>
        <time>2020-08-22T10:27:06.757Z</time>
      </trkpt>
      <trkpt lat="68.40838" lon="14.56948">
        <ele>49.402433</ele>
        <time>2020-08-22T10:27:46.746Z</time>
      </trkpt>
      <trkpt lat="68.41003" lon="14.56405">
        <ele>46.632218</ele>
        <time>2020-08-22T10:28:28.752Z</time>
      </trkpt>
      <trkpt lat="68.41102" lon="14.55887">
        <ele>48.389666</ele>
        <time>2020-08-22T10:29:22.754Z</time>
      </trkpt>
      <trkpt lat="68.41235" lon="14.55451">
        <ele>47.813238</ele>
        <time>2020-08-22T10:30:09.756Z</time>
      </trkpt>
      <trkpt lat="68.41413" lon="14.55104">
        <ele>49.874635</ele>
        <time>2020-08-22T10:31:07.774Z</time>
      </trkpt>
      <trkpt lat="68.41624" lon="14.55104">
        <ele>51.044883</ele>
        <time>2020-08-22T10:31:57.757Z</time>
      </trkpt>
      <trkpt lat="68.41804" lon="14.55367">
        <ele>50.469727</ele>
        <time>2020-08-22T10:32:41.744Z</time>
      </trkpt>
      <trkpt lat="68.41932" lon="14.558">
        <ele>51.681457</ele>
        <time>2020-08-22T10:33:23.782Z</time>
      </trkpt>
      <trkpt lat="68.41993" lon="14.56313">
        <ele>50.860322</ele>
        <time>2020-08-22T10:34:03.798Z</time>
      </trkpt>
      <trkpt lat="68.42131" lon="14.5675">
        <ele>52.020492</ele>
        <time>2020-08-22T10:34:49.764Z</time>
      </trkpt>
      <trkpt lat="68.42208" lon="14.57249">
        <ele>52.20874</ele>
        <time>2020-08-22T10:35:32.758Z</time>
      </trkpt>
      <trkpt lat="68.42308" lon="14.57736">
        <ele>51.763861</ele>
        <time>2020-08-22T10:36:16.733Z</time>
      </trkpt>
      <trkpt lat="68.42403" lon="14.58184">
        <ele>50.962724</ele>
        <time>2020-08-22T10:36:56.760Z</time>
      </trkpt>
      <trkpt lat="68.4243" lon="14.58728">
        <ele>50.443681</ele>
        <time>2020-08-22T10:37:40.734Z</time>
      </trkpt>
      <trkpt lat="68.4245" lon="14.59328">
        <ele>51.230775</ele>
        <time>2020-08-22T10:38:30.737Z</time>
      </trkpt>
      <trkpt lat="68.42612" lon="14.60065">
        <ele>53.134321</ele>
        <time>2020-08-22T10:45:14.737Z</time>
      </trkpt>
      <trkpt lat="68.42769" lon="14.60586">
        <ele>47.837039</ele>
        <time>2020-08-22T10:45:59.742Z</time>
      </trkpt>
      <trkpt lat="68.42957" lon="14.61061">
        <ele>44.253916</ele>
        <time>2020-08-22T10:46:39.778Z</time>
      </trkpt>
      <trkpt lat="68.43108" lon="14.61419">
        <ele>43.140204</ele>
        <time>2020-08-22T10:47:20.742Z</time>
      </trkpt>
      <trkpt lat="68.43224" lon="14.61929">
        <ele>45.319899</ele>
        <time>2020-08-22T10:48:11.755Z</time>
      </trkpt>
      <trkpt lat="68.43293" lon="14.62528">
        <ele>46.507392</ele>
        <time>2020-08-22T10:49:09.776Z</time>
      </trkpt>
      <trkpt lat="68.43234" lon="14.6316">
        <ele>48.408439</ele>
        <time>2020-08-22T10:50:12.748Z</time>
      </trkpt>
      <trkpt lat="68.43177" lon="14.63752">
        <ele>47.22923</ele>
        <time>2020-08-22T10:51:03.781Z</time>
      </trkpt>
      <trkpt lat="68.43136" lon="14.643">
        <ele>50.707671</ele>
        <time>2020-08-22T10:52:04.740Z</time>
      </trkpt>
      <trkpt lat="68.4311" lon="14.64915">
        <ele>53.245267</ele>
        <time>2020-08-22T10:53:05.790Z</time>
      </trkpt>
      <trkpt lat="68.43049" lon="14.65432">
        <ele>52.990888</ele>
        <time>2020-08-22T10:54:05.757Z</time>
      </trkpt>
      <trkpt lat="68.42957" lon="14.66028">
        <ele>52.369337</ele>
        <time>2020-08-22T10:55:08.766Z</time>
      </trkpt>
      <trkpt lat="68.42853" lon="14.66554">
        <ele>52.408223</ele>
        <time>2020-08-22T10:56:08.756Z</time>
      </trkpt>
      <trkpt lat="68.42665" lon="14.66858">
        <ele>57.21258</ele>
        <time>2020-08-22T10:57:43.744Z</time>
      </trkpt>
      <trkpt lat="68.42458" lon="14.67131">
        <ele>56.236462</ele>
        <time>2020-08-22T10:58:42.751Z</time>
      </trkpt>
      <trkpt lat="68.42239" lon="14.67365">
        <ele>48.894137</ele>
        <time>2020-08-22T10:59:29.762Z</time>
      </trkpt>
      <trkpt lat="68.42016" lon="14.67561">
        <ele>45.535209</ele>
        <time>2020-08-22T11:00:28.747Z</time>
      </trkpt>
      <trkpt lat="68.418" lon="14.67699">
        <ele>42.944531</ele>
        <time>2020-08-22T11:01:23.758Z</time>
      </trkpt>
      <trkpt lat="68.41604" lon="14.67808">
        <ele>43.845876</ele>
        <time>2020-08-22T11:02:22.748Z</time>
      </trkpt>
      <trkpt lat="68.41402" lon="14.67899">
        <ele>47.475711</ele>
        <time>2020-08-22T11:03:44.750Z</time>
      </trkpt>
      <trkpt lat="68.41182" lon="14.67912">
        <ele>46.04339</ele>
        <time>2020-08-22T11:04:48.733Z</time>
      </trkpt>
      <trkpt lat="68.40953" lon="14.67796">
        <ele>42.96074</ele>
        <time>2020-08-22T11:05:44.776Z</time>
      </trkpt>
      <trkpt lat="68.40745" lon="14.67541">
        <ele>42.683467</ele>
        <time>2020-08-22T11:06:44.741Z</time>
      </trkpt>
      <trkpt lat="68.40557" lon="14.67328">
        <ele>48.823832</ele>
        <time>2020-08-22T11:07:58.752Z</time>
      </trkpt>
      <trkpt lat="68.40357" lon="14.67334">
        <ele>54.929539</ele>
        <time>2020-08-22T11:09:14.772Z</time>
      </trkpt>
      <trkpt lat="68.40153" lon="14.67562">
        <ele>58.484561</ele>
        <time>2020-08-22T11:10:07.821Z</time>
      </trkpt>
      <trkpt lat="68.39929" lon="14.67814">
        <ele>52.797935</ele>
        <time>2020-08-22T11:10:47.761Z</time>
      </trkpt>
      <trkpt lat="68.3974" lon="14.68111">
        <ele>48.872891</ele>
        <time>2020-08-22T11:11:42.760Z</time>
      </trkpt>
      <trkpt lat="68.39634" lon="14.68556">
        <ele>52.987881</ele>
        <time>2020-08-22T11:13:16.752Z</time>
      </trkpt>
      <trkpt lat="68.39441" lon="14.68839">
        <ele>53.991077</ele>
        <time>2020-08-22T11:14:00.770Z</time>
      </trkpt>
      <trkpt lat="68.3926" lon="14.6918">
        <ele>50.868974</ele>
        <time>2020-08-22T11:14:58.740Z</time>
      </trkpt>
      <trkpt lat="68.39053" lon="14.69554">
        <ele>41.97922</ele>
        <time>2020-08-22T11:15:38.740Z</time>
      </trkpt>
      <trkpt lat="68.38834" lon="14.69833">
        <ele>40.120148</ele>
        <time>2020-08-22T11:16:36.738Z</time>
      </trkpt>
      <trkpt lat="68.38719" lon="14.7028">
        <ele>45.433231</ele>
        <time>2020-08-22T11:17:45.759Z</time>
      </trkpt>
      <trkpt lat="68.38671" lon="14.70842">
        <ele>42.936904</ele>
        <time>2020-08-22T11:18:59.754Z</time>
      </trkpt>
      <trkpt lat="68.38686" lon="14.71398">
        <ele>41.817521</ele>
        <time>2020-08-22T11:19:37.744Z</time>
      </trkpt>
      <trkpt lat="68.38844" lon="14.7187">
        <ele>44.428925</ele>
        <time>2020-08-22T11:20:34.743Z</time>
      </trkpt>
      <trkpt lat="68.39049" lon="14.72155">
        <ele>44.000039</ele>
        <time>2020-08-22T11:21:27.771Z</time>
      </trkpt>
      <trkpt lat="68.39243" lon="14.71996">
        <ele>45.314991</ele>
        <time>2020-08-22T11:22:07.761Z</time>
      </trkpt>
      <trkpt lat="68.3944" lon="14.71715">
        <ele>42.903302</ele>
        <time>2020-08-22T11:22:47.749Z</time>
      </trkpt>
      <trkpt lat="68.3964" lon="14.71377">
        <ele>39.777877</ele>
        <time>2020-08-22T11:23:27.749Z</time>
      </trkpt>
      <trkpt lat="68.39851" lon="14.71085">
        <ele>44.388917</ele>
        <time>2020-08-22T11:24:18.761Z</time>
      </trkpt>
      <trkpt lat="68.40061" lon="14.70879">
        <ele>50.586542</ele>
        <time>2020-08-22T11:25:36.762Z</time>
      </trkpt>
      <trkpt lat="68.40276" lon="14.70784">
        <ele>49.720915</ele>
        <time>2020-08-22T11:26:22.760Z</time>
      </trkpt>
      <trkpt lat="68.40547" lon="14.70579">
        <ele>44.117688</ele>
        <time>2020-08-22T11:27:02.778Z</time>
      </trkpt>
      <trkpt lat="68.4078" lon="14.70783">
        <ele>38.402673</ele>
        <time>2020-08-22T11:27:42.760Z</time>
      </trkpt>
      <trkpt lat="68.4103" lon="14.70642">
        <ele>39.07589</ele>
        <time>2020-08-22T11:28:22.778Z</time>
      </trkpt>
      <trkpt lat="68.41256" lon="14.70581">
        <ele>41.395049</ele>
        <time>2020-08-22T11:29:04.755Z</time>
      </trkpt>
      <trkpt lat="68.41465" lon="14.70688">
        <ele>42.012112</ele>
        <time>2020-08-22T11:29:51.750Z</time>
      </trkpt>
      <trkpt lat="68.41704" lon="14.70624">
        <ele>42.715161</ele>
        <time>2020-08-22T11:30:34.745Z</time>
      </trkpt>
      <trkpt lat="68.41916" lon="14.70505">
        <ele>45.024962</ele>
        <time>2020-08-22T11:31:14.773Z</time>
      </trkpt>
      <trkpt lat="68.42142" lon="14.70513">
        <ele>47.268735</ele>
        <time>2020-08-22T11:32:12.756Z</time>
      </trkpt>
      <trkpt lat="68.42355" lon="14.70559">
        <ele>50.278456</ele>
        <time>2020-08-22T11:33:19.771Z</time>
      </trkpt>
      <trkpt lat="68.42547" lon="14.70751">
        <ele>56.915088</ele>
        <time>2020-08-22T11:34:36.762Z</time>
      </trkpt>
      <trkpt lat="68.42733" lon="14.70998">
        <ele>64.273964</ele>
        <time>2020-08-22T11:36:04.739Z</time>
      </trkpt>
      <trkpt lat="68.42913" lon="14.71327">
        <ele>67.234042</ele>
        <time>2020-08-22T11:37:17.741Z</time>
      </trkpt>
      <trkpt lat="68.43096" lon="14.71671">
        <ele>63.315084</ele>
        <time>2020-08-22T11:38:12.772Z</time>
      </trkpt>
      <trkpt lat="68.43266" lon="14.72145">
        <ele>55.56795</ele>
        <time>2020-08-22T11:38:42.763Z</time>
      </trkpt>
      <trkpt lat="68.43404" lon="14.72642">
        <ele>45.769221</ele>
        <time>2020-08-22T11:39:06.750Z</time>
      </trkpt>
      <trkpt lat="68.4351" lon="14.73217">
        <ele>40.646942</ele>
        <time>2020-08-22T11:39:40.786Z</time>
      </trkpt>
      <trkpt lat="68.43504" lon="14.73768">
        <ele>41.108892</ele>
        <time>2020-08-22T11:40:21.752Z</time>
      </trkpt>
      <trkpt lat="68.43471" lon="14.74359">
        <ele>44.414698</ele>
        <time>2020-08-22T11:41:14.745Z</time>
      </trkpt>
      <trkpt lat="68.43426" lon="14.74991">
        <ele>49.143173</ele>
        <time>2020-08-22T11:42:17.761Z</time>
      </trkpt>
      <trkpt lat="68.43401" lon="14.7558">
        <ele>48.116927</ele>
        <time>2020-08-22T11:43:13.746Z</time>
      </trkpt>
      <trkpt lat="68.43369" lon="14.76167">
        <ele>45.164705</ele>
        <time>2020-08-22T11:44:04.747Z</time>
      </trkpt>
      <trkpt lat="68.4336" lon="14.76798">
        <ele>39.368771</ele>
        <time>2020-08-22T11:44:50.749Z</time>
      </trkpt>
      <trkpt lat="68.43308" lon="14.77427">
        <ele>43.719442</ele>
        <time>2020-08-22T11:45:40.769Z</time>
      </trkpt>
      <trkpt lat="68.43322" lon="14.77994">
        <ele>57.189797</ele>
        <time>2020-08-22T11:47:21.794Z</time>
      </trkpt>
      <trkpt lat="68.43272" lon="14.78636">
        <ele>54.797568</ele>
        <time>2020-08-22T11:48:26.768Z</time>
      </trkpt>
      <trkpt lat="68.43228" lon="14.79369">
        <ele>41.624932</ele>
        <time>2020-08-22T11:49:14.755Z</time>
      </trkpt>
      <trkpt lat="68.43219" lon="14.79998">
        <ele>40.090339</ele>
        <time>2020-08-22T11:50:03.756Z</time>
      </trkpt>
      <trkpt lat="68.43201" lon="14.8056">
        <ele>46.689317</ele>
        <time>2020-08-22T11:51:07.754Z</time>
      </trkpt>
      <trkpt lat="68.43156" lon="14.81145">
        <ele>56.073363</ele>
        <time>2020-08-22T11:52:33.751Z</time>
      </trkpt>
      <trkpt lat="68.43113" lon="14.81716">
        <ele>57.400337</ele>
        <time>2020-08-22T11:53:25.752Z</time>
      </trkpt>
      <trkpt lat="68.42956" lon="14.81971">
        <ele>55.101901</ele>
        <time>2020-08-22T11:54:33.797Z</time>
      </trkpt>
      <trkpt lat="68.43043" lon="14.82254">
        <ele>38.328313</ele>
        <time>2020-08-22T11:55:17.771Z</time>
      </trkpt>
      <trkpt lat="68.43142" lon="14.82697">
        <ele>27.531365</ele>
        <time>2020-08-22T12:41:39.756Z</time>
      </trkpt>
      <trkpt lat="68.43312" lon="14.83108">
        <ele>43.226574</ele>
        <time>2020-08-22T12:42:45.754Z</time>
      </trkpt>
      <trkpt lat="68.43475" lon="14.83423">
        <ele>53.813628</ele>
        <time>2020-08-22T12:43:26.789Z</time>
      </trkpt>
      <trkpt lat="68.43659" lon="14.83744">
        <ele>56.413788</ele>
        <time>2020-08-22T12:44:09.751Z</time>
      </trkpt>
      <trkpt lat="68.43832" lon="14.841">
        <ele>51.536559</ele>
        <time>2020-08-22T12:44:50.773Z</time>
      </trkpt>
      <trkpt lat="68.44027" lon="14.84208">
        <ele>43.330382</ele>
        <time>2020-08-22T12:45:30.773Z</time>
      </trkpt>
      <trkpt lat="68.4425" lon="14.84304">
        <ele>36.179491</ele>
        <time>2020-08-22T12:46:12.788Z</time>
      </trkpt>
      <trkpt lat="68.44466" lon="14.84314">
        <ele>25.781585</ele>
        <time>2020-08-22T12:46:54.854Z</time>
      </trkpt>
      <trkpt lat="68.44687" lon="14.84316">
        <ele>17.506984</ele>
        <time>2020-08-22T12:47:35.772Z</time>
      </trkpt>
      <trkpt lat="68.44901" lon="14.84315">
        <ele>20.627625</ele>
        <time>2020-08-22T12:48:16.816Z</time>
      </trkpt>
      <trkpt lat="68.45104" lon="14.841">
        <ele>28.055783</ele>
        <time>2020-08-22T12:48:57.801Z</time>
      </trkpt>
      <trkpt lat="68.45297" lon="14.83852">
        <ele>27.062518</ele>
        <time>2020-08-22T12:49:40.806Z</time>
      </trkpt>
      <trkpt lat="68.45495" lon="14.83586">
        <ele>25.856544</ele>
        <time>2020-08-22T12:50:21.772Z</time>
      </trkpt>
      <trkpt lat="68.45706" lon="14.83409">
        <ele>25.988037</ele>
        <time>2020-08-22T12:51:02.856Z</time>
      </trkpt>
      <trkpt lat="68.45915" lon="14.83282">
        <ele>35.459025</ele>
        <time>2020-08-22T12:51:42.821Z</time>
      </trkpt>
      <trkpt lat="68.46124" lon="14.83145">
        <ele>42.289211</ele>
        <time>2020-08-22T12:52:22.772Z</time>
      </trkpt>
      <trkpt lat="68.46339" lon="14.83011">
        <ele>43.294068</ele>
        <time>2020-08-22T12:53:05.775Z</time>
      </trkpt>
      <trkpt lat="68.46553" lon="14.82864">
        <ele>31.851555</ele>
        <time>2020-08-22T12:53:45.814Z</time>
      </trkpt>
      <trkpt lat="68.46762" lon="14.82746">
        <ele>29.016772</ele>
        <time>2020-08-22T12:54:26.788Z</time>
      </trkpt>
      <trkpt lat="68.46965" lon="14.82587">
        <ele>33.587282</ele>
        <time>2020-08-22T12:55:06.765Z</time>
      </trkpt>
      <trkpt lat="68.47184" lon="14.82472">
        <ele>28.626143</ele>
        <time>2020-08-22T12:55:50.766Z</time>
      </trkpt>
      <trkpt lat="68.47389" lon="14.82316">
        <ele>17.04575</ele>
        <time>2020-08-22T12:56:33.789Z</time>
      </trkpt>
      <trkpt lat="68.4759" lon="14.82174">
        <ele>15.341186</ele>
        <time>2020-08-22T12:57:13.793Z</time>
      </trkpt>
      <trkpt lat="68.47799" lon="14.82035">
        <ele>24.08863</ele>
        <time>2020-08-22T12:57:53.780Z</time>
      </trkpt>
      <trkpt lat="68.48015" lon="14.81884">
        <ele>25.188083</ele>
        <time>2020-08-22T12:58:34.815Z</time>
      </trkpt>
      <trkpt lat="68.48217" lon="14.81766">
        <ele>18.523271</ele>
        <time>2020-08-22T12:59:16.779Z</time>
      </trkpt>
      <trkpt lat="68.48421" lon="14.81615">
        <ele>26.034791</ele>
        <time>2020-08-22T12:59:56.765Z</time>
      </trkpt>
      <trkpt lat="68.48638" lon="14.81472">
        <ele>29.715198</ele>
        <time>2020-08-22T13:00:39.782Z</time>
      </trkpt>
      <trkpt lat="68.4884" lon="14.81348">
        <ele>28.870121</ele>
        <time>2020-08-22T13:01:19.760Z</time>
      </trkpt>
      <trkpt lat="68.49045" lon="14.81261">
        <ele>35.784089</ele>
        <time>2020-08-22T13:01:59.807Z</time>
      </trkpt>
      <trkpt lat="68.49257" lon="14.81194">
        <ele>33.637897</ele>
        <time>2020-08-22T13:02:39.777Z</time>
      </trkpt>
      <trkpt lat="68.49462" lon="14.81053">
        <ele>24.580013</ele>
        <time>2020-08-22T13:03:21.783Z</time>
      </trkpt>
      <trkpt lat="68.4967" lon="14.80821">
        <ele>26.148744</ele>
        <time>2020-08-22T13:04:18.791Z</time>
      </trkpt>
      <trkpt lat="68.49822" lon="14.80463">
        <ele>23.238157</ele>
        <time>2020-08-22T13:05:48.741Z</time>
      </trkpt>
      <trkpt lat="68.49877" lon="14.79845">
        <ele>35.828888</ele>
        <time>2020-08-22T13:09:04.745Z</time>
      </trkpt>
      <trkpt lat="68.49974" lon="14.79876">
        <ele>43.272468</ele>
        <time>2020-08-22T13:43:46.769Z</time>
      </trkpt>
      <trkpt lat="68.50129" lon="14.80254">
        <ele>42.957525</ele>
        <time>2020-08-22T13:44:42.776Z</time>
      </trkpt>
      <trkpt lat="68.50182" lon="14.80854">
        <ele>42.304648</ele>
        <time>2020-08-22T13:45:30.762Z</time>
      </trkpt>
      <trkpt lat="68.50159" lon="14.81417">
        <ele>40.793297</ele>
        <time>2020-08-22T13:46:10.798Z</time>
      </trkpt>
      <trkpt lat="68.50184" lon="14.82016">
        <ele>43.138215</ele>
        <time>2020-08-22T13:46:56.798Z</time>
      </trkpt>
      <trkpt lat="68.50209" lon="14.82595">
        <ele>42.59856</ele>
        <time>2020-08-22T13:47:43.797Z</time>
      </trkpt>
      <trkpt lat="68.50257" lon="14.83136">
        <ele>42.496154</ele>
        <time>2020-08-22T13:48:27.766Z</time>
      </trkpt>
      <trkpt lat="68.50281" lon="14.8378">
        <ele>43.156343</ele>
        <time>2020-08-22T13:49:25.766Z</time>
      </trkpt>
      <trkpt lat="68.50299" lon="14.84423">
        <ele>44.648916</ele>
        <time>2020-08-22T13:50:25.781Z</time>
      </trkpt>
      <trkpt lat="68.5028" lon="14.84984">
        <ele>46.935317</ele>
        <time>2020-08-22T13:51:25.765Z</time>
      </trkpt>
      <trkpt lat="68.50254" lon="14.85537">
        <ele>50.493967</ele>
        <time>2020-08-22T13:52:25.766Z</time>
      </trkpt>
      <trkpt lat="68.50274" lon="14.86159">
        <ele>52.284165</ele>
        <time>2020-08-22T13:53:26.761Z</time>
      </trkpt>
      <trkpt lat="68.50298" lon="14.86797">
        <ele>52.197548</ele>
        <time>2020-08-22T13:54:20.763Z</time>
      </trkpt>
      <trkpt lat="68.50305" lon="14.87363">
        <ele>54.550917</ele>
        <time>2020-08-22T13:55:08.766Z</time>
      </trkpt>
      <trkpt lat="68.50284" lon="14.87932">
        <ele>61.521858</ele>
        <time>2020-08-22T13:56:09.843Z</time>
      </trkpt>
      <trkpt lat="68.50323" lon="14.88541">
        <ele>57.595024</ele>
        <time>2020-08-22T13:57:01.801Z</time>
      </trkpt>
      <trkpt lat="68.50416" lon="14.89134">
        <ele>52.479818</ele>
        <time>2020-08-22T13:57:41.785Z</time>
      </trkpt>
      <trkpt lat="68.50473" lon="14.89714">
        <ele>59.656308</ele>
        <time>2020-08-22T13:58:52.786Z</time>
      </trkpt>
      <trkpt lat="68.50554" lon="14.90231">
        <ele>66.010936</ele>
        <time>2020-08-22T14:00:00.779Z</time>
      </trkpt>
      <trkpt lat="68.5067" lon="14.90674">
        <ele>67.090502</ele>
        <time>2020-08-22T14:00:40.768Z</time>
      </trkpt>
      <trkpt lat="68.50763" lon="14.91202">
        <ele>62.974863</ele>
        <time>2020-08-22T14:01:20.764Z</time>
      </trkpt>
      <trkpt lat="68.50916" lon="14.91826">
        <ele>50.76433</ele>
        <time>2020-08-22T14:01:54.769Z</time>
      </trkpt>
      <trkpt lat="68.51063" lon="14.9237">
        <ele>47.432401</ele>
        <time>2020-08-22T14:02:31.763Z</time>
      </trkpt>
      <trkpt lat="68.51244" lon="14.92734">
        <ele>45.330955</ele>
        <time>2020-08-22T14:03:11.786Z</time>
      </trkpt>
      <trkpt lat="68.5142" lon="14.93056">
        <ele>41.073303</ele>
        <time>2020-08-22T14:03:32.782Z</time>
      </trkpt>
      <trkpt lat="68.51643" lon="14.93467">
        <ele>41.108552</ele>
        <time>2020-08-22T14:04:11.764Z</time>
      </trkpt>
      <trkpt lat="68.51806" lon="14.93869">
        <ele>41.462831</ele>
        <time>2020-08-22T14:04:51.767Z</time>
      </trkpt>
      <trkpt lat="68.51972" lon="14.94262">
        <ele>40.894889</ele>
        <time>2020-08-22T14:05:33.760Z</time>
      </trkpt>
      <trkpt lat="68.52127" lon="14.94661">
        <ele>39.588466</ele>
        <time>2020-08-22T14:06:13.776Z</time>
      </trkpt>
      <trkpt lat="68.52287" lon="14.95047">
        <ele>37.476303</ele>
        <time>2020-08-22T14:06:53.789Z</time>
      </trkpt>
      <trkpt lat="68.52382" lon="14.95595">
        <ele>39.746625</ele>
        <time>2020-08-22T14:07:40.767Z</time>
      </trkpt>
      <trkpt lat="68.52539" lon="14.96037">
        <ele>41.931907</ele>
        <time>2020-08-22T14:08:32.826Z</time>
      </trkpt>
      <trkpt lat="68.5274" lon="14.96453">
        <ele>36.400992</ele>
        <time>2020-08-22T14:09:14.776Z</time>
      </trkpt>
      <trkpt lat="68.5281" lon="14.97012">
        <ele>38.244803</ele>
        <time>2020-08-22T14:09:54.783Z</time>
      </trkpt>
      <trkpt lat="68.52951" lon="14.97429">
        <ele>39.437802</ele>
        <time>2020-08-22T14:10:34.781Z</time>
      </trkpt>
      <trkpt lat="68.53122" lon="14.97809">
        <ele>40.023018</ele>
        <time>2020-08-22T14:11:23.772Z</time>
      </trkpt>
      <trkpt lat="68.53262" lon="14.98188">
        <ele>39.162208</ele>
        <time>2020-08-22T14:12:06.788Z</time>
      </trkpt>
      <trkpt lat="68.5343" lon="14.98623">
        <ele>43.349211</ele>
        <time>2020-08-22T14:13:02.795Z</time>
      </trkpt>
      <trkpt lat="68.53619" lon="14.99014">
        <ele>46.346914</ele>
        <time>2020-08-22T14:14:02.761Z</time>
      </trkpt>
      <trkpt lat="68.53779" lon="14.99452">
        <ele>45.0049</ele>
        <time>2020-08-22T14:14:52.765Z</time>
      </trkpt>
      <trkpt lat="68.53966" lon="14.99681">
        <ele>45.498052</ele>
        <time>2020-08-22T14:15:40.799Z</time>
      </trkpt>
      <trkpt lat="68.54169" lon="14.99496">
        <ele>48.934799</ele>
        <time>2020-08-22T14:16:40.776Z</time>
      </trkpt>
      <trkpt lat="68.54362" lon="14.99276">
        <ele>53.394523</ele>
        <time>2020-08-22T14:17:43.786Z</time>
      </trkpt>
      <trkpt lat="68.54556" lon="14.99138">
        <ele>55.291176</ele>
        <time>2020-08-22T14:18:43.817Z</time>
      </trkpt>
      <trkpt lat="68.54775" lon="14.9913">
        <ele>56.159618</ele>
        <time>2020-08-22T14:22:48.782Z</time>
      </trkpt>
      <trkpt lat="68.5499" lon="14.99114">
        <ele>54.928034</ele>
        <time>2020-08-22T14:23:28.780Z</time>
      </trkpt>
      <trkpt lat="68.55182" lon="14.98868">
        <ele>52.915142</ele>
        <time>2020-08-22T14:24:08.786Z</time>
      </trkpt>
      <trkpt lat="68.55341" lon="14.98237">
        <ele>49.412646</ele>
        <time>2020-08-22T14:24:50.770Z</time>
      </trkpt>
      <trkpt lat="68.55466" lon="14.97593">
        <ele>45.792903</ele>
        <time>2020-08-22T14:25:30.772Z</time>
      </trkpt>
      <trkpt lat="68.55638" lon="14.97055">
        <ele>40.441541</ele>
        <time>2020-08-22T14:26:10.817Z</time>
      </trkpt>
      <trkpt lat="68.55711" lon="14.96348">
        <ele>37.855489</ele>
        <time>2020-08-22T14:26:50.787Z</time>
      </trkpt>
      <trkpt lat="68.55805" lon="14.95722">
        <ele>39.656224</ele>
        <time>2020-08-22T14:27:30.760Z</time>
      </trkpt>
      <trkpt lat="68.55886" lon="14.95107">
        <ele>40.354102</ele>
        <time>2020-08-22T14:28:22.823Z</time>
      </trkpt>
      <trkpt lat="68.55887" lon="14.94455">
        <ele>37.003831</ele>
        <time>2020-08-22T14:29:02.776Z</time>
      </trkpt>
      <trkpt lat="68.55888" lon="14.93821">
        <ele>37.379606</ele>
        <time>2020-08-22T14:29:46.769Z</time>
      </trkpt>
      <trkpt lat="68.55868" lon="14.93272">
        <ele>38.074354</ele>
        <time>2020-08-22T14:30:28.788Z</time>
      </trkpt>
      <trkpt lat="68.55845" lon="14.92732">
        <ele>38.036906</ele>
        <time>2020-08-22T14:31:08.780Z</time>
      </trkpt>
      <trkpt lat="68.55852" lon="14.92178">
        <ele>46.670207</ele>
        <time>2020-08-22T14:32:16.804Z</time>
      </trkpt>
      <trkpt lat="68.55708" lon="14.92135">
        <ele>57.563939</ele>
        <time>2020-08-22T14:33:56.782Z</time>
      </trkpt>
      <trkpt lat="68.55601" lon="14.92064">
        <ele>61.875805</ele>
        <time>2020-08-22T14:38:55.789Z</time>
      </trkpt>
      <trkpt lat="68.55739" lon="14.91927">
        <ele>56.319399</ele>
        <time>2020-08-22T14:39:39.788Z</time>
      </trkpt>
      <trkpt lat="68.55746" lon="14.91463">
        <ele>58.752171</ele>
        <time>2020-08-22T14:40:38.774Z</time>
      </trkpt>
      <trkpt lat="68.55564" lon="14.91287">
        <ele>66.132011</ele>
        <time>2020-08-22T14:42:06.787Z</time>
      </trkpt>
      <trkpt lat="68.55434" lon="14.91697">
        <ele>70.52802</ele>
        <time>2020-08-22T14:43:14.818Z</time>
      </trkpt>
      <trkpt lat="68.55349" lon="14.9223">
        <ele>69.964707</ele>
        <time>2020-08-22T14:44:01.779Z</time>
      </trkpt>
    </trkseg>
  </trk>
</gpx>